Time;durP1;ratioP1;P1;durP2;ratioP2;P2;SDS_P1;SDS_P2;PMS_P1;PMS_P2;Temp;Humidity;BMP_temperature;BMP_pressure;BME280_temperature;BME280_humidity;BME280_pressure;Samples;Min_cycle;Max_cycle;Signal;HPM_P1;HPM_P2
2023/09/11 00:01:37;;;;;;;20.27;12.77;;;;;;;;;;5015280;28;20233;-70
2023/09/11 00:04:03;;;;;;;17.87;12.67;;;;;;;;;;5015308;28;20199;-69
2023/09/11 00:06:29;;;;;;;23.03;13.27;;;;;;;;;;5015130;28;20179;-70
2023/09/11 00:09:00;;;;;;;19.63;12.30;;;;;;;;;;5036062;28;20187;-70
2023/09/11 00:11:26;;;;;;;18.83;12.83;;;;;;;;;;5019337;28;20193;-70
2023/09/11 00:13:52;;;;;;;18.20;12.30;;;;;;;;;;5019498;28;20302;-69
2023/09/11 00:16:18;;;;;;;18.53;12.20;;;;;;;;;;5018958;28;20179;-70
2023/09/11 00:18:45;;;;;;;20.83;12.80;;;;;;;;;;5036829;28;20199;-70
2023/09/11 00:21:11;;;;;;;19.40;12.00;;;;;;;;;;5037541;28;20552;-70
2023/09/11 00:23:37;;;;;;;17.17;11.40;;;;;;;;;;5018587;28;20210;-70
2023/09/11 00:26:03;;;;;;;20.37;11.57;;;;;;;;;;5035255;28;20183;-70
2023/09/11 00:28:29;;;;;;;17.17;11.57;;;;;;;;;;5035111;28;20229;-69
2023/09/11 00:30:59;;;;;;;16.07;11.90;;;;;;;;;;5017631;28;20221;-70
2023/09/11 00:33:25;;;;;;;19.53;12.77;;;;;;;;;;5035502;28;20199;-69
2023/09/11 00:35:51;;;;;;;20.00;13.13;;;;;;;;;;5036760;28;20175;-71
2023/09/11 00:38:17;;;;;;;16.70;12.00;;;;;;;;;;5017195;28;20245;-71
2023/09/11 00:40:43;;;;;;;20.97;13.13;;;;;;;;;;5035228;28;20194;-70
2023/09/11 00:43:09;;;;;;;18.63;12.37;;;;;;;;;;5017670;28;20214;-67
2023/09/11 00:45:35;;;;;;;18.50;12.20;;;;;;;;;;5035065;28;20239;-68
2023/09/11 00:48:01;;;;;;;22.53;12.60;;;;;;;;;;5016972;28;20183;-69
2023/09/11 00:50:28;;;;;;;19.70;12.80;;;;;;;;;;5034709;28;20175;-70
2023/09/11 00:52:54;;;;;;;21.50;11.53;;;;;;;;;;5016892;28;20210;-68
2023/09/11 00:55:20;;;;;;;20.83;12.90;;;;;;;;;;5034695;28;20199;-70
2023/09/11 00:57:46;;;;;;;20.17;12.70;;;;;;;;;;5034783;28;20197;-68
2023/09/11 01:00:12;;;;;;;19.33;13.20;;;;;;;;;;5035017;28;20298;-69
2023/09/11 01:02:38;;;;;;;21.93;12.63;;;;;;;;;;5016917;28;20249;-69
2023/09/11 01:05:07;;;;;;;27.47;13.27;;;;;;;;;;5016794;28;20195;-68
2023/09/11 01:07:33;;;;;;;22.83;14.17;;;;;;;;;;5034818;28;20175;-68
2023/09/11 01:09:59;;;;;;;20.37;12.87;;;;;;;;;;5016960;28;20253;-69
2023/09/11 01:12:26;;;;;;;24.83;13.43;;;;;;;;;;5034532;28;20206;-69
2023/09/11 01:14:52;;;;;;;19.57;13.13;;;;;;;;;;5034728;28;20203;-68
2023/09/11 01:17:18;;;;;;;22.83;13.50;;;;;;;;;;5034564;28;20258;-69
2023/09/11 01:20:08;;;;;;;21.70;12.47;;;;;;;;;;5015749;28;20294;-69
2023/09/11 01:22:37;;;;;;;21.03;13.20;;;;;;;;;;5016335;28;20237;-69
2023/09/11 01:25:13;;;;;;;22.87;14.00;;;;;;;;;;4998960;28;1042667;-68
2023/09/11 01:27:39;;;;;;;21.73;14.10;;;;;;;;;;5035308;28;20195;-69
2023/09/11 01:30:05;;;;;;;25.17;15.10;;;;;;;;;;5035534;28;20175;-69
2023/09/11 01:32:32;;;;;;;23.17;14.07;;;;;;;;;;5035252;28;20560;-69
2023/09/11 01:34:58;;;;;;;31.23;15.80;;;;;;;;;;5035082;28;20206;-69
2023/09/11 01:37:24;;;;;;;24.87;15.33;;;;;;;;;;5017420;28;20225;-68
2023/09/11 01:39:49;;;;;;;29.07;15.00;;;;;;;;;;5035524;28;20207;-69
2023/09/11 01:42:18;;;;;;;24.10;14.87;;;;;;;;;;5035016;28;20187;-69
2023/09/11 01:44:45;;;;;;;25.63;14.80;;;;;;;;;;5017050;28;20210;-69
2023/09/11 01:47:13;;;;;;;25.70;15.30;;;;;;;;;;5035169;28;20189;-69
2023/09/11 01:49:46;;;;;;;23.33;15.73;;;;;;;;;;5017229;28;20187;-69
2023/09/11 01:52:12;;;;;;;25.63;15.93;;;;;;;;;;5034811;28;20177;-69
2023/09/11 01:54:39;;;;;;;25.83;16.27;;;;;;;;;;5034964;28;20732;-69
2023/09/11 01:57:06;;;;;;;23.60;14.57;;;;;;;;;;5016777;28;20183;-69
2023/09/11 01:59:32;;;;;;;25.90;14.37;;;;;;;;;;5034865;28;20583;-69
2023/09/11 02:01:58;;;;;;;19.37;14.07;;;;;;;;;;5034197;28;20210;-68
2023/09/11 02:04:24;;;;;;;19.13;14.30;;;;;;;;;;5016143;28;20230;-69
2023/09/11 02:06:50;;;;;;;18.40;13.13;;;;;;;;;;5033855;28;20176;-69
2023/09/11 02:09:16;;;;;;;22.13;14.27;;;;;;;;;;5034433;28;20720;-68
2023/09/11 02:11:42;;;;;;;25.10;13.40;;;;;;;;;;5016236;28;20233;-69
2023/09/11 02:14:08;;;;;;;21.33;12.73;;;;;;;;;;5015873;28;20211;-69
2023/09/11 02:16:34;;;;;;;19.73;13.57;;;;;;;;;;5033650;28;20179;-69
2023/09/11 02:19:00;;;;;;;20.80;13.63;;;;;;;;;;5033620;28;20293;-69
2023/09/11 02:21:26;;;;;;;17.67;12.87;;;;;;;;;;5015827;28;20183;-69
2023/09/11 02:23:52;;;;;;;20.07;13.50;;;;;;;;;;5033712;28;20245;-69
2023/09/11 02:26:18;;;;;;;20.90;13.60;;;;;;;;;;5033730;28;20207;-69
2023/09/11 02:28:44;;;;;;;19.33;12.80;;;;;;;;;;5015685;28;20202;-69
2023/09/11 02:31:10;;;;;;;23.40;13.07;;;;;;;;;;5033456;28;20179;-69
2023/09/11 02:33:36;;;;;;;16.97;13.30;;;;;;;;;;5015705;28;20199;-69
2023/09/11 02:36:02;;;;;;;17.43;12.83;;;;;;;;;;5015584;28;20206;-69
2023/09/11 02:38:29;;;;;;;22.67;13.63;;;;;;;;;;5033280;28;20203;-69
2023/09/11 02:40:55;;;;;;;19.27;13.97;;;;;;;;;;5033503;28;20206;-69
2023/09/11 02:43:21;;;;;;;20.60;13.47;;;;;;;;;;5037744;28;20179;-69
2023/09/11 02:45:47;;;;;;;28.93;13.57;;;;;;;;;;5035029;28;20641;-69
2023/09/11 02:48:13;;;;;;;23.20;13.90;;;;;;;;;;5015671;28;20641;-68
2023/09/11 02:50:39;;;;;;;26.47;13.30;;;;;;;;;;5033259;28;20206;-68
2023/09/11 02:53:08;;;;;;;24.10;14.57;;;;;;;;;;5015668;28;20179;-69
2023/09/11 02:55:38;;;;;;;20.50;12.83;;;;;;;;;;5033321;28;20254;-69
2023/09/11 02:58:04;;;;;;;18.73;13.47;;;;;;;;;;5033174;28;20649;-69
2023/09/11 03:00:30;;;;;;;27.57;12.93;;;;;;;;;;5033133;28;20554;-69
2023/09/11 03:02:56;;;;;;;21.07;13.77;;;;;;;;;;5015533;28;20175;-67
2023/09/11 03:05:22;;;;;;;16.90;12.63;;;;;;;;;;5015789;28;20278;-68
2023/09/11 03:07:48;;;;;;;19.93;13.10;;;;;;;;;;5033432;28;20217;-68
2023/09/11 03:10:14;;;;;;;22.33;13.70;;;;;;;;;;5015674;28;20222;-69
2023/09/11 03:12:40;;;;;;;21.43;12.80;;;;;;;;;;5015645;28;20256;-69
2023/09/11 03:15:06;;;;;;;22.57;13.17;;;;;;;;;;5015448;28;20202;-68
2023/09/11 03:17:32;;;;;;;23.23;12.37;;;;;;;;;;5033210;28;20187;-69
2023/09/11 03:19:58;;;;;;;22.33;13.00;;;;;;;;;;5033241;28;20249;-69
2023/09/11 03:22:24;;;;;;;23.93;12.07;;;;;;;;;;5033345;28;20179;-69
2023/09/11 03:24:50;;;;;;;28.17;12.50;;;;;;;;;;5015281;28;20221;-69
2023/09/11 03:27:16;;;;;;;19.57;12.80;;;;;;;;;;5033757;28;20203;-69
2023/09/11 03:29:42;;;;;;;22.07;12.17;;;;;;;;;;5015333;28;20179;-69
2023/09/11 03:32:08;;;;;;;18.93;12.33;;;;;;;;;;5015362;28;20567;-68
2023/09/11 03:34:34;;;;;;;22.33;13.33;;;;;;;;;;5031777;28;20409;-69
2023/09/11 03:37:00;;;;;;;22.90;13.50;;;;;;;;;;5031936;28;20445;-67
2023/09/11 03:39:26;;;;;;;19.13;12.23;;;;;;;;;;5015097;28;20210;-68
2023/09/11 03:41:53;;;;;;;18.50;12.37;;;;;;;;;;5031952;28;20459;-68
2023/09/11 03:44:19;;;;;;;18.67;12.75;;;;;;;;;;5035336;28;20382;-70
2023/09/11 03:46:45;;;;;;;23.30;13.13;;;;;;;;;;5018050;28;20410;-68
2023/09/11 03:49:11;;;;;;;22.73;13.40;;;;;;;;;;5018171;28;20741;-69
2023/09/11 03:51:36;;;;;;;20.47;12.40;;;;;;;;;;5036235;28;20478;-69
2023/09/11 03:54:07;;;;;;;23.90;13.02;;;;;;;;;;5036047;28;20391;-69
2023/09/11 03:56:33;;;;;;;23.83;13.17;;;;;;;;;;5017969;28;20402;-69
2023/09/11 03:58:59;;;;;;;22.33;12.32;;;;;;;;;;5017887;28;20441;-69
2023/09/11 04:01:25;;;;;;;22.70;12.65;;;;;;;;;;5017561;28;20391;-67
2023/09/11 04:03:51;;;;;;;19.65;12.65;;;;;;;;;;5035642;28;20382;-68
2023/09/11 04:06:19;;;;;;;22.63;12.70;;;;;;;;;;5035492;28;20383;-68
2023/09/11 04:08:45;;;;;;;20.48;12.45;;;;;;;;;;5017397;28;20391;-68
2023/09/11 04:11:11;;;;;;;17.60;12.40;;;;;;;;;;5035742;28;20387;-68
2023/09/11 04:13:37;;;;;;;23.88;13.05;;;;;;;;;;5017645;28;20885;-68
2023/09/11 04:16:03;;;;;;;18.23;12.50;;;;;;;;;;5035657;28;20398;-68
2023/09/11 04:18:29;;;;;;;17.87;12.77;;;;;;;;;;5035823;28;20925;-68
2023/09/11 04:21:03;;;;;;;23.63;11.85;;;;;;;;;;5035415;28;20386;-69
2023/09/11 04:23:29;;;;;;;16.08;12.20;;;;;;;;;;5035277;28;20399;-69
2023/09/11 04:25:56;;;;;;;20.27;12.43;;;;;;;;;;5017191;28;20383;-69
2023/09/11 04:28:22;;;;;;;22.40;12.65;;;;;;;;;;5035882;28;20415;-69
2023/09/11 04:30:48;;;;;;;21.00;12.87;;;;;;;;;;5017601;28;20388;-69
2023/09/11 04:33:14;;;;;;;23.50;12.10;;;;;;;;;;5017204;28;20896;-69
2023/09/11 04:35:39;;;;;;;23.80;11.95;;;;;;;;;;5040218;22;20461;-69
2023/09/11 04:38:05;;;;;;;21.85;12.15;;;;;;;;;;5016731;28;20380;-69
2023/09/11 04:40:31;;;;;;;20.80;11.93;;;;;;;;;;5034353;28;20403;-69
2023/09/11 04:42:57;;;;;;;20.98;11.80;;;;;;;;;;5016594;28;20423;-70
2023/09/11 04:45:23;;;;;;;17.33;10.37;;;;;;;;;;5035505;28;20198;-69
2023/09/11 04:47:49;;;;;;;20.87;11.97;;;;;;;;;;5016637;28;20406;-70
2023/09/11 04:50:16;;;;;;;21.30;12.33;;;;;;;;;;5016365;28;20876;-70
2023/09/11 04:52:42;;;;;;;19.17;11.90;;;;;;;;;;5016491;28;20387;-70
2023/09/11 04:55:09;;;;;;;19.48;11.32;;;;;;;;;;5015219;28;20390;-70
2023/09/11 04:57:36;;;;;;;18.48;11.23;;;;;;;;;;5034175;28;20391;-70
2023/09/11 05:00:06;;;;;;;18.55;10.73;;;;;;;;;;5034016;28;20429;-69
2023/09/11 05:02:32;;;;;;;22.92;11.38;;;;;;;;;;5034448;28;20864;-70
2023/09/11 05:04:58;;;;;;;20.35;11.20;;;;;;;;;;5016745;28;20481;-70
2023/09/11 05:07:24;;;;;;;18.13;11.23;;;;;;;;;;5034222;28;20714;-69
2023/09/11 05:09:50;;;;;;;16.43;9.80;;;;;;;;;;5017425;28;20653;-69
2023/09/11 05:12:16;;;;;;;16.43;10.37;;;;;;;;;;5017445;28;20648;-69
2023/09/11 05:14:42;;;;;;;22.07;9.77;;;;;;;;;;5017403;28;20620;-69
2023/09/11 05:17:08;;;;;;;21.90;10.10;;;;;;;;;;5017145;28;20679;-69
2023/09/11 05:19:34;;;;;;;19.93;10.17;;;;;;;;;;5035006;28;20199;-69
2023/09/11 05:22:00;;;;;;;19.13;10.03;;;;;;;;;;5034795;28;20641;-70
2023/09/11 05:24:26;;;;;;;14.17;10.20;;;;;;;;;;5016946;28;20175;-69
2023/09/11 05:26:51;;;;;;;20.77;10.20;;;;;;;;;;5034739;28;20178;-69
2023/09/11 05:29:17;;;;;;;16.40;10.20;;;;;;;;;;5034848;28;20656;-69
2023/09/11 05:31:43;;;;;;;14.83;9.73;;;;;;;;;;5034600;28;20206;-69
2023/09/11 05:34:09;;;;;;;16.07;9.67;;;;;;;;;;5034781;28;20258;-69
2023/09/11 05:36:35;;;;;;;24.00;10.63;;;;;;;;;;5035065;28;20691;-69
2023/09/11 05:39:02;;;;;;;23.47;9.80;;;;;;;;;;5036000;28;20669;-69
2023/09/11 05:41:28;;;;;;;19.70;9.60;;;;;;;;;;5035812;28;20203;-69
2023/09/11 05:43:54;;;;;;;21.47;9.57;;;;;;;;;;5035092;28;20175;-69
2023/09/11 05:46:20;;;;;;;17.23;9.67;;;;;;;;;;5017194;28;20256;-69
2023/09/11 05:48:46;;;;;;;24.63;10.37;;;;;;;;;;5016855;28;20176;-69
2023/09/11 05:51:14;;;;;;;20.57;9.17;;;;;;;;;;5016979;28;20246;-70
2023/09/11 05:53:40;;;;;;;14.90;9.70;;;;;;;;;;5016728;28;20562;-69
2023/09/11 05:56:06;;;;;;;19.43;9.83;;;;;;;;;;5034384;28;20233;-69
2023/09/11 05:58:31;;;;;;;20.10;9.77;;;;;;;;;;5016326;28;20641;-70
2023/09/11 06:00:57;;;;;;;23.33;9.77;;;;;;;;;;5016457;28;20190;-70
2023/09/11 06:03:23;;;;;;;22.37;8.87;;;;;;;;;;5034126;28;20760;-70
2023/09/11 06:05:50;;;;;;;20.00;10.10;;;;;;;;;;5033739;28;20668;-70
2023/09/11 06:08:16;;;;;;;19.80;9.37;;;;;;;;;;5034020;28;20229;-69
2023/09/11 06:10:42;;;;;;;18.03;9.40;;;;;;;;;;5034310;28;20209;-69
2023/09/11 06:13:08;;;;;;;18.40;9.23;;;;;;;;;;5033900;28;20183;-69
2023/09/11 06:15:34;;;;;;;23.33;9.60;;;;;;;;;;5033918;28;20743;-70
2023/09/11 06:18:00;;;;;;;15.10;9.40;;;;;;;;;;5034043;28;20179;-70
2023/09/11 06:20:26;;;;;;;21.53;8.50;;;;;;;;;;5016059;28;20217;-69
2023/09/11 06:22:53;;;;;;;16.17;8.83;;;;;;;;;;5034244;28;20262;-69
2023/09/11 06:25:19;;;;;;;15.23;8.50;;;;;;;;;;5033644;28;20195;-69
2023/09/11 06:27:45;;;;;;;18.07;8.13;;;;;;;;;;5034020;28;20201;-69
2023/09/11 06:30:11;;;;;;;18.60;8.67;;;;;;;;;;5033634;28;20183;-69
2023/09/11 06:32:37;;;;;;;20.50;9.17;;;;;;;;;;5015862;28;20303;-69
2023/09/11 06:35:06;;;;;;;14.30;8.07;;;;;;;;;;5033468;28;20708;-70
2023/09/11 06:37:32;;;;;;;15.87;8.33;;;;;;;;;;5033509;28;20164;-70
2023/09/11 06:39:58;;;;;;;15.73;8.30;;;;;;;;;;5033742;28;20218;-69
2023/09/11 06:42:24;;;;;;;20.70;8.23;;;;;;;;;;5033626;28;20171;-69
2023/09/11 06:44:51;;;;;;;22.97;8.00;;;;;;;;;;5033566;28;20191;-69
2023/09/11 06:47:17;;;;;;;17.70;8.87;;;;;;;;;;5015611;28;20673;-69
2023/09/11 06:49:43;;;;;;;14.40;7.63;;;;;;;;;;5033604;28;20179;-69
2023/09/11 06:52:09;;;;;;;17.40;8.13;;;;;;;;;;5015560;28;20548;-70
2023/09/11 06:54:35;;;;;;;20.83;8.80;;;;;;;;;;5015413;28;20183;-69
2023/09/11 06:57:01;;;;;;;18.70;7.53;;;;;;;;;;5033687;28;20211;-69
2023/09/11 06:59:27;;;;;;;18.90;8.70;;;;;;;;;;5033055;28;20238;-69
2023/09/11 07:01:53;;;;;;;21.37;8.47;;;;;;;;;;5033475;28;20282;-69
2023/09/11 07:04:19;;;;;;;15.40;7.87;;;;;;;;;;5015584;28;20676;-69
2023/09/11 07:06:46;;;;;;;20.27;8.57;;;;;;;;;;5032856;28;20191;-69
2023/09/11 07:09:12;;;;;;;17.57;8.77;;;;;;;;;;5015603;28;20179;-69
2023/09/11 07:11:38;;;;;;;19.90;8.90;;;;;;;;;;5033390;28;20190;-69
2023/09/11 07:14:05;;;;;;;20.63;8.30;;;;;;;;;;5015465;28;20194;-70
2023/09/11 07:16:31;;;;;;;21.23;9.13;;;;;;;;;;5033152;28;20195;-70
2023/09/11 07:18:57;;;;;;;22.47;8.83;;;;;;;;;;5014675;28;20586;-70
2023/09/11 07:21:23;;;;;;;20.90;8.73;;;;;;;;;;5033258;28;20659;-69
2023/09/11 07:23:49;;;;;;;20.93;9.20;;;;;;;;;;5033412;28;20179;-69
2023/09/11 07:26:15;;;;;;;21.87;9.53;;;;;;;;;;5033276;28;20190;-69
2023/09/11 07:29:04;;;;;;;16.27;8.83;;;;;;;;;;5033118;28;20171;-69
2023/09/11 07:31:31;;;;;;;15.23;8.37;;;;;;;;;;5032808;28;20164;-69
2023/09/11 07:33:57;;;;;;;16.80;8.87;;;;;;;;;;5032815;28;20183;-69
2023/09/11 07:36:23;;;;;;;26.37;8.90;;;;;;;;;;5032623;28;20282;-69
2023/09/11 07:38:49;;;;;;;17.87;8.37;;;;;;;;;;5032565;28;20171;-69
2023/09/11 07:41:16;;;;;;;14.57;8.53;;;;;;;;;;5014779;28;20175;-70
2023/09/11 07:43:46;;;;;;;19.60;9.50;;;;;;;;;;5032633;28;20175;-69
2023/09/11 07:46:11;;;;;;;17.43;9.87;;;;;;;;;;5032663;28;20202;-69
2023/09/11 07:48:37;;;;;;;20.83;11.97;;;;;;;;;;5014859;28;20187;-69
2023/09/11 07:51:03;;;;;;;22.17;11.00;;;;;;;;;;5032744;28;20181;-69
2023/09/11 07:53:30;;;;;;;19.93;11.03;;;;;;;;;;5032547;28;20175;-69
2023/09/11 07:55:56;;;;;;;25.73;11.03;;;;;;;;;;5014870;28;20195;-69
2023/09/11 07:58:24;;;;;;;21.97;11.23;;;;;;;;;;5015565;28;20561;-69
2023/09/11 08:00:50;;;;;;;22.30;11.47;;;;;;;;;;5033520;28;20207;-68
2023/09/11 08:03:16;;;;;;;20.07;11.67;;;;;;;;;;5015824;28;20198;-69
2023/09/11 08:05:42;;;;;;;22.23;10.93;;;;;;;;;;5033457;28;20643;-69
2023/09/11 08:08:08;;;;;;;27.80;11.83;;;;;;;;;;5015271;28;20185;-69
2023/09/11 08:10:34;;;;;;;24.17;12.30;;;;;;;;;;5032977;28;20190;-69
2023/09/11 08:13:00;;;;;;;22.03;12.27;;;;;;;;;;5033128;28;20191;-69
2023/09/11 08:15:28;;;;;;;28.13;14.40;;;;;;;;;;5014942;28;20317;-69
2023/09/11 08:17:54;;;;;;;26.07;14.60;;;;;;;;;;5015054;28;20187;-69
2023/09/11 08:20:20;;;;;;;34.47;15.07;;;;;;;;;;5032575;28;20264;-70
2023/09/11 08:22:45;;;;;;;25.73;13.93;;;;;;;;;;5032548;28;20309;-69
2023/09/11 08:25:13;;;;;;;31.37;14.30;;;;;;;;;;5017154;28;20265;-69
2023/09/11 08:27:39;;;;;;;46.83;17.00;;;;;;;;;;5014676;28;20262;-69
2023/09/11 08:30:06;;;;;;;28.03;14.30;;;;;;;;;;5035347;28;20186;-69
2023/09/11 08:32:35;;;;;;;32.27;13.57;;;;;;;;;;5035969;28;20703;-69
2023/09/11 08:35:02;;;;;;;23.33;13.27;;;;;;;;;;5035596;28;20214;-69
2023/09/11 08:37:28;;;;;;;28.27;11.87;;;;;;;;;;5018160;28;20650;-69
2023/09/11 08:39:54;;;;;;;26.27;10.80;;;;;;;;;;5035608;28;20210;-69
2023/09/11 08:42:20;;;;;;;21.20;9.63;;;;;;;;;;5017919;28;20663;-69
2023/09/11 08:44:47;;;;;;;19.83;9.50;;;;;;;;;;5035756;28;20222;-69
2023/09/11 08:47:13;;;;;;;16.30;9.03;;;;;;;;;;5017929;28;20176;-69
2023/09/11 08:49:44;;;;;;;19.43;8.17;;;;;;;;;;5035935;28;20183;-69
2023/09/11 08:52:12;;;;;;;18.77;8.73;;;;;;;;;;5035788;28;20240;-69
2023/09/11 08:54:41;;;;;;;14.70;7.90;;;;;;;;;;5017686;28;20183;-69
2023/09/11 08:57:07;;;;;;;14.27;8.03;;;;;;;;;;5035485;28;20187;-69
2023/09/11 08:59:37;;;;;;;20.10;8.53;;;;;;;;;;5017444;28;20289;-69
2023/09/11 09:02:04;;;;;;;16.43;8.20;;;;;;;;;;5035306;28;20716;-69
2023/09/11 09:04:30;;;;;;;15.13;8.57;;;;;;;;;;5035100;28;20202;-69
2023/09/11 09:06:56;;;;;;;16.60;8.23;;;;;;;;;;5035212;28;20217;-69
2023/09/11 09:09:22;;;;;;;20.03;8.20;;;;;;;;;;5035052;28;20603;-69
2023/09/11 09:11:48;;;;;;;14.80;8.10;;;;;;;;;;5035242;28;20189;-69
2023/09/11 09:14:18;;;;;;;16.47;8.57;;;;;;;;;;5017428;28;20183;-69
2023/09/11 09:16:45;;;;;;;16.53;8.67;;;;;;;;;;5017329;28;20576;-69
2023/09/11 09:19:11;;;;;;;18.60;8.60;;;;;;;;;;5035043;28;20234;-69
2023/09/11 09:21:37;;;;;;;18.50;9.33;;;;;;;;;;5034818;28;20203;-70
2023/09/11 09:24:12;;;;;;;19.57;8.53;;;;;;;;;;5016988;28;20702;-69
2023/09/11 09:26:57;;;;;;;17.37;9.70;;;;;;;;;;5016877;28;20293;-69
2023/09/11 09:29:23;;;;;;;18.60;9.30;;;;;;;;;;5035073;28;20195;-69
2023/09/11 09:31:49;;;;;;;19.10;8.70;;;;;;;;;;5034633;28;20215;-69
2023/09/11 09:34:15;;;;;;;14.17;9.73;;;;;;;;;;5034778;28;20179;-68
2023/09/11 09:36:51;;;;;;;22.77;10.10;;;;;;;;;;5016609;28;20218;-69
2023/09/11 09:39:17;;;;;;;13.47;8.90;;;;;;;;;;5016749;28;20206;-69
2023/09/11 09:41:56;;;;;;;17.53;8.97;;;;;;;;;;5034561;28;20182;-70
2023/09/11 09:44:58;;;;;;;24.83;9.83;;;;;;;;;;5034695;28;20672;-69
2023/09/11 09:47:24;;;;;;;17.53;9.40;;;;;;;;;;4938356;29;20181;-69
2023/09/11 09:49:54;;;;;;;18.37;9.30;;;;;;;;;;5018914;28;20560;-70
2023/09/11 09:52:21;;;;;;;16.13;10.13;;;;;;;;;;5016411;28;20183;-69
2023/09/11 09:54:49;;;;;;;16.87;8.93;;;;;;;;;;5034165;28;20206;-69
2023/09/11 09:57:16;;;;;;;19.20;9.47;;;;;;;;;;5034352;28;20179;-69
2023/09/11 09:59:42;;;;;;;14.57;8.77;;;;;;;;;;5033794;28;20336;-69
2023/09/11 10:02:10;;;;;;;20.37;9.40;;;;;;;;;;5033872;28;20190;-69
2023/09/11 10:04:37;;;;;;;16.23;8.70;;;;;;;;;;5033912;28;20175;-69
2023/09/11 10:07:03;;;;;;;14.63;9.00;;;;;;;;;;5033881;28;20179;-69
2023/09/11 10:09:29;;;;;;;15.37;8.67;;;;;;;;;;5033883;28;20179;-69
2023/09/11 10:11:54;;;;;;;18.97;9.27;;;;;;;;;;5033890;28;20594;-69
2023/09/11 10:14:21;;;;;;;16.33;8.87;;;;;;;;;;5033695;28;20176;-69
2023/09/11 10:16:47;;;;;;;17.63;9.37;;;;;;;;;;5015847;28;20206;-69
2023/09/11 10:19:13;;;;;;;16.50;7.27;;;;;;;;;;5016380;28;20210;-69
2023/09/11 10:21:39;;;;;;;14.85;7.85;;;;;;;;;;5035220;28;20171;-69
2023/09/11 10:24:08;;;;;;;13.57;6.77;;;;;;;;;;5017263;28;20179;-69
2023/09/11 10:26:45;;;;;;;19.23;7.68;;;;;;;;;;5034336;28;20635;-69
2023/09/11 10:29:13;;;;;;;14.57;7.50;;;;;;;;;;5016243;28;20269;-69
2023/09/11 10:31:43;;;;;;;13.27;8.07;;;;;;;;;;5034000;28;20198;-69
2023/09/11 10:34:11;;;;;;;12.27;7.80;;;;;;;;;;5033472;28;20656;-69
2023/09/11 10:36:43;;;;;;;19.53;9.20;;;;;;;;;;5033663;28;20210;-70
2023/09/11 10:39:10;;;;;;;19.00;8.07;;;;;;;;;;5034044;28;20604;-69
2023/09/11 10:41:36;;;;;;;15.35;8.65;;;;;;;;;;5033428;28;20179;-69
2023/09/11 10:44:03;;;;;;;11.43;8.40;;;;;;;;;;5048713;22;20238;-70
2023/09/11 10:46:33;;;;;;;13.65;8.07;;;;;;;;;;5033408;28;20194;-70
2023/09/11 10:49:00;;;;;;;15.85;8.07;;;;;;;;;;5015873;28;20562;-70
2023/09/11 10:51:29;;;;;;;17.02;9.00;;;;;;;;;;5015068;28;20182;-70
2023/09/11 10:53:56;;;;;;;15.85;8.32;;;;;;;;;;5032833;28;20748;-70
2023/09/11 10:56:22;;;;;;;14.80;8.52;;;;;;;;;;5034295;28;20596;-71
2023/09/11 10:58:51;;;;;;;18.48;9.35;;;;;;;;;;5033853;28;20206;-69
2023/09/11 11:01:17;;;;;;;17.97;8.97;;;;;;;;;;5015470;28;20803;-69
2023/09/11 11:03:44;;;;;;;16.02;9.52;;;;;;;;;;5033442;28;20210;-70
2023/09/11 11:06:14;;;;;;;17.33;9.35;;;;;;;;;;5033219;28;20175;-70
2023/09/11 11:08:41;;;;;;;11.82;9.43;;;;;;;;;;5033346;28;20235;-70
2023/09/11 11:11:20;;;;;;;18.05;8.95;;;;;;;;;;5033006;28;20224;-70
2023/09/11 11:14:05;;;;;;;21.02;8.57;;;;;;;;;;5015440;28;20194;-70
2023/09/11 11:16:31;;;;;;;14.15;8.50;;;;;;;;;;5033147;28;20186;-70
2023/09/11 11:18:58;;;;;;;14.65;9.07;;;;;;;;;;5015573;28;20564;-70
2023/09/11 11:21:24;;;;;;;12.52;8.45;;;;;;;;;;5033520;28;20175;-69
2023/09/11 11:23:54;;;;;;;19.50;8.18;;;;;;;;;;5015240;28;20222;-70
2023/09/11 11:26:22;;;;;;;14.63;8.52;;;;;;;;;;5015272;28;20171;-70
2023/09/11 11:28:49;;;;;;;17.60;9.15;;;;;;;;;;5015261;28;20190;-70
2023/09/11 11:31:22;;;;;;;13.02;8.32;;;;;;;;;;5014238;28;20415;-70
2023/09/11 11:33:49;;;;;;;12.87;8.10;;;;;;;;;;5034327;28;20407;-69
2023/09/11 11:36:16;;;;;;;14.67;8.20;;;;;;;;;;5033870;28;20375;-69
2023/09/11 11:38:43;;;;;;;11.38;8.32;;;;;;;;;;5032952;28;20382;-68
2023/09/11 11:41:09;;;;;;;14.88;8.15;;;;;;;;;;5032989;28;20389;-70
2023/09/11 11:43:35;;;;;;;16.10;8.23;;;;;;;;;;5014570;28;20390;-69
2023/09/11 11:46:03;;;;;;;14.73;7.90;;;;;;;;;;5032101;28;20437;-70
2023/09/11 11:48:29;;;;;;;14.65;8.05;;;;;;;;;;5032352;28;20407;-69
2023/09/11 11:50:55;;;;;;;14.50;8.07;;;;;;;;;;5031880;28;20383;-69
2023/09/11 11:53:24;;;;;;;14.65;8.20;;;;;;;;;;5031855;28;20726;-70
2023/09/11 11:55:56;;;;;;;15.35;8.60;;;;;;;;;;5032361;28;20406;-70
2023/09/11 11:58:23;;;;;;;11.63;7.47;;;;;;;;;;5032453;28;20375;-70
2023/09/11 12:00:59;;;;;;;14.27;7.97;;;;;;;;;;5014436;28;20406;-70
2023/09/11 12:03:29;;;;;;;14.05;7.95;;;;;;;;;;5015634;28;20387;-70
2023/09/11 12:05:56;;;;;;;10.73;7.07;;;;;;;;;;5019019;28;20395;-69
2023/09/11 12:08:23;;;;;;;11.98;7.60;;;;;;;;;;5017888;28;20395;-69
2023/09/11 12:10:49;;;;;;;11.70;7.50;;;;;;;;;;5035728;28;20382;-70
2023/09/11 12:13:25;;;;;;;10.82;7.53;;;;;;;;;;5018504;28;20426;-71
2023/09/11 12:15:56;;;;;;;13.65;7.55;;;;;;;;;;5035876;28;20378;-71
2023/09/11 12:18:22;;;;;;;12.82;7.35;;;;;;;;;;5037278;28;20726;-70
2023/09/11 12:21:14;;;;;;;12.27;8.20;;;;;;;;;;5035946;28;20977;-71
2023/09/11 12:23:40;;;;;;;15.48;8.02;;;;;;;;;;5031566;28;20398;-69
2023/09/11 12:26:06;;;;;;;11.90;7.95;;;;;;;;;;5035738;28;20407;-73
2023/09/11 12:28:33;;;;;;;13.52;7.82;;;;;;;;;;5035609;28;20379;-71
2023/09/11 12:30:59;;;;;;;11.48;8.07;;;;;;;;;;5035364;28;20375;-71
2023/09/11 12:33:26;;;;;;;15.65;9.20;;;;;;;;;;5017126;28;20754;-70
2023/09/11 12:35:53;;;;;;;15.35;8.40;;;;;;;;;;5034877;28;20382;-69
2023/09/11 12:38:19;;;;;;;13.90;8.25;;;;;;;;;;5035029;28;20387;-70
2023/09/11 12:40:48;;;;;;;14.27;8.68;;;;;;;;;;5034925;28;20633;-70
2023/09/11 12:43:14;;;;;;;12.23;8.90;;;;;;;;;;5016817;28;20521;-70
2023/09/11 12:45:40;;;;;;;18.02;9.27;;;;;;;;;;5034920;28;20764;-70
2023/09/11 12:48:07;;;;;;;12.48;8.82;;;;;;;;;;5017030;28;20394;-70
2023/09/11 12:50:33;;;;;;;15.00;8.88;;;;;;;;;;5016791;28;20403;-70
2023/09/11 12:53:00;;;;;;;13.52;9.35;;;;;;;;;;5034526;28;20474;-70
2023/09/11 12:55:30;;;;;;;15.50;8.60;;;;;;;;;;5016523;28;20470;-70
2023/09/11 12:57:56;;;;;;;15.48;9.13;;;;;;;;;;5034587;28;20441;-70
2023/09/11 13:00:22;;;;;;;13.02;8.25;;;;;;;;;;5034335;28;20414;-70
2023/09/11 13:02:48;;;;;;;14.10;8.52;;;;;;;;;;5016496;28;20387;-70
2023/09/11 13:05:14;;;;;;;12.18;8.05;;;;;;;;;;5016486;28;20818;-68
2023/09/11 13:07:40;;;;;;;14.68;8.82;;;;;;;;;;5034368;28;20472;-70
2023/09/11 13:10:07;;;;;;;11.68;8.20;;;;;;;;;;5033998;28;20375;-70
2023/09/11 13:12:33;;;;;;;13.15;8.52;;;;;;;;;;5034305;28;20737;-70
2023/09/11 13:14:58;;;;;;;13.23;9.00;;;;;;;;;;5032924;28;20383;-70
2023/09/11 13:17:24;;;;;;;12.68;8.50;;;;;;;;;;5033754;28;20799;-71
2023/09/11 13:19:50;;;;;;;11.68;8.73;;;;;;;;;;5033709;28;20481;-71
2023/09/11 13:22:16;;;;;;;13.38;8.48;;;;;;;;;;5015956;28;20387;-71
2023/09/11 13:24:42;;;;;;;13.65;9.15;;;;;;;;;;5033715;28;20522;-70
2023/09/11 13:27:08;;;;;;;14.37;9.33;;;;;;;;;;5034281;28;20388;-70
2023/09/11 13:29:34;;;;;;;14.18;9.55;;;;;;;;;;5016612;28;20389;-70
2023/09/11 13:32:00;;;;;;;16.20;9.73;;;;;;;;;;5033734;28;20382;-70
2023/09/11 13:34:26;;;;;;;17.88;9.93;;;;;;;;;;5033550;28;20398;-69
2023/09/11 13:36:53;;;;;;;12.65;8.90;;;;;;;;;;5015853;28;20379;-71
2023/09/11 13:39:22;;;;;;;13.60;9.07;;;;;;;;;;5033360;28;20407;-69
2023/09/11 13:41:48;;;;;;;12.38;9.00;;;;;;;;;;5033976;28;20745;-68
2023/09/11 13:44:14;;;;;;;14.93;9.07;;;;;;;;;;5015317;28;20415;-70
2023/09/11 13:46:40;;;;;;;11.52;9.57;;;;;;;;;;5033414;28;20383;-70
2023/09/11 13:49:06;;;;;;;13.73;8.95;;;;;;;;;;5033878;28;20723;-70
2023/09/11 13:51:32;;;;;;;12.93;9.73;;;;;;;;;;5033669;28;20387;-71
2023/09/11 13:53:58;;;;;;;15.43;9.53;;;;;;;;;;5034618;28;20391;-68
2023/09/11 13:56:24;;;;;;;12.18;8.30;;;;;;;;;;5033683;28;20394;-70
2023/09/11 13:58:50;;;;;;;12.23;8.18;;;;;;;;;;5015260;28;20383;-70
2023/09/11 14:01:16;;;;;;;12.70;8.88;;;;;;;;;;5033645;28;20466;-70
2023/09/11 14:03:41;;;;;;;15.83;8.80;;;;;;;;;;5033464;28;20411;-70
2023/09/11 14:06:07;;;;;;;14.75;8.45;;;;;;;;;;5032994;28;20379;-70
2023/09/11 14:08:34;;;;;;;12.60;8.50;;;;;;;;;;5033954;28;20394;-72
2023/09/11 14:11:00;;;;;;;14.23;8.73;;;;;;;;;;5033821;28;20873;-70
2023/09/11 14:13:26;;;;;;;11.50;8.82;;;;;;;;;;5033257;28;20383;-70
2023/09/11 14:15:52;;;;;;;;;;;;;;;;;;5016767;28;20514;-69
2023/09/11 14:18:18;;;;;;;12.25;7.55;;;;;;;;;;5016373;28;20207;-70
2023/09/11 14:20:44;;;;;;;15.57;8.45;;;;;;;;;;5016329;28;20621;-70
2023/09/11 14:23:10;;;;;;;16.80;8.90;;;;;;;;;;5016248;28;20288;-70